Gumtree, North Carolina
Current Conditions -  °F | °C
As of 10:54 PM on Tuesday 21 Oct 2014 (Local Time) from KINT Reporting Station
Clear Clear  
Wind Chill: 53°   Ceiling: Unl
Heat Index: 53°   Visibility: 10mi
Dew Point: 37°   Wind: 9mph
Humidity: 55%   Direction: 320°NW
Pressure: 30.01"   Gusts: NA
Location:  36.0182°N, 80.183°W
Report Text: KINT 220254Z AUTO 32008KT 10SM CLR 12/03 A3001 RMK AO2 SLP157 T01170028 51021
Loading
Personal Weather Stations






























Interactive Weather Map
Tropical Storm Tracking
New forecast layout! Learn more

10-Day Weather Forecast

Advertisements
Track Severe Weather on mobile